sensor_id;sensor_type;location;lat;lon;timestamp;noise_LAeq;noise_LA_min;noise_LA_max;noise_LA01;noise_LA95
79288;Laerm;68737;53.946;27.634;2024-02-26T00:00:51;41.906120;38.180824;63.818100;;
79288;Laerm;68737;53.946;27.634;2024-02-26T00:03:21;44.457626;39.578003;62.320965;;
79288;Laerm;68737;53.946;27.634;2024-02-26T00:05:51;44.028282;39.046295;72.848564;;
79288;Laerm;68737;53.946;27.634;2024-02-26T00:08:21;44.634819;38.146545;60.191154;;
79288;Laerm;68737;53.946;27.634;2024-02-26T00:10:51;45.722366;39.308327;63.539581;;
79288;Laerm;68737;53.946;27.634;2024-02-26T00:13:21;45.604980;39.509689;65.212959;;
79288;Laerm;68737;53.946;27.634;2024-02-26T00:15:51;42.295692;38.880325;64.191917;;
79288;Laerm;68737;53.946;27.634;2024-02-26T00:18:21;42.373077;38.968765;53.886116;;
79288;Laerm;68737;53.946;27.634;2024-02-26T00:20:51;41.696159;38.646194;53.805466;;
79288;Laerm;68737;53.946;27.634;2024-02-26T00:23:21;42.907585;39.251816;54.451256;;
79288;Laerm;68737;53.946;27.634;2024-02-26T00:25:51;50.004738;39.267639;68.649437;;
79288;Laerm;68737;53.946;27.634;2024-02-26T00:28:21;45.573761;38.843384;62.759621;;
79288;Laerm;68737;53.946;27.634;2024-02-26T00:30:51;45.643623;38.828850;59.264935;;
79288;Laerm;68737;53.946;27.634;2024-02-26T00:33:21;51.161240;39.447838;64.508530;;
79288;Laerm;68737;53.946;27.634;2024-02-26T00:35:51;43.888336;38.309418;64.529999;;
79288;Laerm;68737;53.946;27.634;2024-02-26T00:38:21;45.067131;37.560394;60.792694;;
79288;Laerm;68737;53.946;27.634;2024-02-26T00:40:52;42.882912;37.725304;70.757309;;
79288;Laerm;68737;53.946;27.634;2024-02-26T00:43:23;44.306206;38.148857;63.891342;;
79288;Laerm;68737;53.946;27.634;2024-02-26T00:45:51;47.607407;38.397064;61.835712;;
79288;Laerm;68737;53.946;27.634;2024-02-26T00:48:21;41.571991;38.256760;55.633659;;
79288;Laerm;68737;53.946;27.634;2024-02-26T00:50:51;42.244606;38.368134;63.261528;;
79288;Laerm;68737;53.946;27.634;2024-02-26T00:53:21;45.642448;38.128868;63.231842;;
79288;Laerm;68737;53.946;27.634;2024-02-26T00:55:51;41.362221;38.125572;63.322956;;
79288;Laerm;68737;53.946;27.634;2024-02-26T00:58:21;41.153282;38.129257;55.836365;;
79288;Laerm;68737;53.946;27.634;2024-02-26T01:00:51;41.498398;37.775093;58.964897;;
79288;Laerm;68737;53.946;27.634;2024-02-26T01:03:21;40.876373;37.516953;60.599289;;
79288;Laerm;68737;53.946;27.634;2024-02-26T01:05:51;42.641029;38.820511;65.947319;;
79288;Laerm;68737;53.946;27.634;2024-02-26T01:08:21;42.184799;39.249115;54.789940;;
79288;Laerm;68737;53.946;27.634;2024-02-26T01:10:51;48.575768;39.390991;82.827835;;
79288;Laerm;68737;53.946;27.634;2024-02-26T01:13:21;47.094872;39.211441;60.772141;;
79288;Laerm;68737;53.946;27.634;2024-02-26T01:15:51;51.981346;40.628372;67.205780;;
79288;Laerm;68737;53.946;27.634;2024-02-26T01:18:21;48.508728;40.922241;76.520905;;
79288;Laerm;68737;53.946;27.634;2024-02-26T01:20:51;48.993858;40.727898;63.394257;;
79288;Laerm;68737;53.946;27.634;2024-02-26T01:23:21;45.301834;39.742188;68.601006;;
79288;Laerm;68737;53.946;27.634;2024-02-26T01:25:51;48.687065;40.464783;62.442154;;
79288;Laerm;68737;53.946;27.634;2024-02-26T01:28:21;45.842255;39.552338;78.061859;;
79288;Laerm;68737;53.946;27.634;2024-02-26T01:30:51;46.601837;40.764282;63.638752;;
79288;Laerm;68737;53.946;27.634;2024-02-26T01:33:21;48.216583;40.996063;62.395508;;
79288;Laerm;68737;53.946;27.634;2024-02-26T01:35:51;45.226921;39.254074;60.266968;;
79288;Laerm;68737;53.946;27.634;2024-02-26T01:38:21;50.879028;40.814781;64.843597;;
79288;Laerm;68737;53.946;27.634;2024-02-26T01:40:51;44.399490;39.145622;62.279560;;
79288;Laerm;68737;53.946;27.634;2024-02-26T01:43:21;46.747757;39.662354;62.807167;;
79288;Laerm;68737;53.946;27.634;2024-02-26T01:45:51;47.239998;39.986320;62.578735;;
79288;Laerm;68737;53.946;27.634;2024-02-26T01:48:21;49.568092;39.857742;64.418167;;
79288;Laerm;68737;53.946;27.634;2024-02-26T01:50:51;50.670174;40.063110;81.379326;;
79288;Laerm;68737;53.946;27.634;2024-02-26T01:53:21;52.239037;40.617249;75.930573;;
79288;Laerm;68737;53.946;27.634;2024-02-26T01:55:51;47.752930;40.735176;80.547836;;
79288;Laerm;68737;53.946;27.634;2024-02-26T01:58:21;49.099442;39.769745;65.170670;;
79288;Laerm;68737;53.946;27.634;2024-02-26T02:00:51;43.372200;39.622620;64.473404;;
79288;Laerm;68737;53.946;27.634;2024-02-26T02:03:22;50.485092;40.058990;64.236816;;
79288;Laerm;68737;53.946;27.634;2024-02-26T02:05:51;53.454796;41.946518;75.871513;;
79288;Laerm;68737;53.946;27.634;2024-02-26T02:08:21;46.776085;40.622513;60.574913;;
79288;Laerm;68737;53.946;27.634;2024-02-26T02:10:51;48.044388;41.336105;63.752750;;
79288;Laerm;68737;53.946;27.634;2024-02-26T02:13:21;50.773849;42.942513;63.205692;;
79288;Laerm;68737;53.946;27.634;2024-02-26T02:15:51;49.429398;44.966843;63.305855;;
79288;Laerm;68737;53.946;27.634;2024-02-26T02:18:21;54.215027;42.941589;72.768410;;
79288;Laerm;68737;53.946;27.634;2024-02-26T02:20:52;47.968506;41.861404;63.362312;;
79288;Laerm;68737;53.946;27.634;2024-02-26T02:23:21;47.836899;41.669708;67.723129;;
79288;Laerm;68737;53.946;27.634;2024-02-26T02:25:51;53.709427;43.146423;65.438126;;
79288;Laerm;68737;53.946;27.634;2024-02-26T02:28:21;47.262207;41.634155;66.312317;;
79288;Laerm;68737;53.946;27.634;2024-02-26T02:30:51;46.165932;40.531082;63.896832;;
79288;Laerm;68737;53.946;27.634;2024-02-26T02:33:21;49.965584;41.338791;78.629730;;
79288;Laerm;68737;53.946;27.634;2024-02-26T02:35:51;49.771774;41.363525;80.262009;;
79288;Laerm;68737;53.946;27.634;2024-02-26T02:38:21;55.619125;44.816246;72.139999;;
79288;Laerm;68737;53.946;27.634;2024-02-26T02:40:51;49.335388;42.000671;63.819019;;
79288;Laerm;68737;53.946;27.634;2024-02-26T02:43:21;45.342743;41.428986;66.001694;;
79288;Laerm;68737;53.946;27.634;2024-02-26T02:45:51;53.876167;44.919952;77.683662;;
79288;Laerm;68737;53.946;27.634;2024-02-26T02:48:21;49.886909;42.167259;64.419823;;
79288;Laerm;68737;53.946;27.634;2024-02-26T02:50:52;51.044708;42.744812;64.644974;;
79288;Laerm;68737;53.946;27.634;2024-02-26T02:53:21;48.978210;41.764725;71.670883;;
79288;Laerm;68737;53.946;27.634;2024-02-26T02:55:51;52.744247;42.255615;78.090309;;
79288;Laerm;68737;53.946;27.634;2024-02-26T02:58:21;52.900948;43.933304;64.133308;;
79288;Laerm;68737;53.946;27.634;2024-02-26T03:00:51;54.080017;44.186806;79.643318;;
79288;Laerm;68737;53.946;27.634;2024-02-26T03:03:21;54.584366;42.985085;68.247040;;
79288;Laerm;68737;53.946;27.634;2024-02-26T03:05:51;54.440422;44.451630;79.757591;;
79288;Laerm;68737;53.946;27.634;2024-02-26T03:08:21;53.319260;44.352165;66.640091;;
79288;Laerm;68737;53.946;27.634;2024-02-26T03:10:51;52.130974;43.555084;72.754257;;
79288;Laerm;68737;53.946;27.634;2024-02-26T03:13:21;55.110435;44.054321;69.785957;;
79288;Laerm;68737;53.946;27.634;2024-02-26T03:15:51;53.108429;44.304176;65.749435;;
79288;Laerm;68737;53.946;27.634;2024-02-26T03:18:21;53.455406;43.917542;65.379349;;
79288;Laerm;68737;53.946;27.634;2024-02-26T03:20:51;53.551590;43.509232;77.332550;;
79288;Laerm;68737;53.946;27.634;2024-02-26T03:23:21;51.512489;43.860176;80.142578;;
79288;Laerm;68737;53.946;27.634;2024-02-26T03:25:51;53.849709;45.457741;76.567947;;
79288;Laerm;68737;53.946;27.634;2024-02-26T03:28:21;52.282578;44.515266;72.481644;;
79288;Laerm;68737;53.946;27.634;2024-02-26T03:30:51;53.746010;44.367538;71.480682;;
79288;Laerm;68737;53.946;27.634;2024-02-26T03:33:21;54.547882;45.843414;65.967461;;
79288;Laerm;68737;53.946;27.634;2024-02-26T03:35:51;57.131020;45.916061;76.845726;;
79288;Laerm;68737;53.946;27.634;2024-02-26T03:38:21;54.205116;45.652412;77.142456;;
79288;Laerm;68737;53.946;27.634;2024-02-26T03:40:51;54.831619;46.125954;79.754364;;
79288;Laerm;68737;53.946;27.634;2024-02-26T03:43:21;56.925987;47.372086;71.969635;;
79288;Laerm;68737;53.946;27.634;2024-02-26T03:45:51;55.042740;45.733543;78.902222;;
79288;Laerm;68737;53.946;27.634;2024-02-26T03:48:21;54.622826;46.807480;71.025131;;
79288;Laerm;68737;53.946;27.634;2024-02-26T03:50:53;54.854004;46.641594;74.060471;;
79288;Laerm;68737;53.946;27.634;2024-02-26T03:53:21;53.869881;45.668930;73.253708;;
79288;Laerm;68737;53.946;27.634;2024-02-26T03:55:51;54.776291;46.201920;80.717308;;
79288;Laerm;68737;53.946;27.634;2024-02-26T03:58:21;55.689697;48.170776;73.833115;;
79288;Laerm;68737;53.946;27.634;2024-02-26T04:00:51;55.722527;45.780281;71.387581;;
79288;Laerm;68737;53.946;27.634;2024-02-26T04:03:21;56.667671;46.777252;73.898979;;
79288;Laerm;68737;53.946;27.634;2024-02-26T04:05:51;54.579056;47.728683;65.781914;;
79288;Laerm;68737;53.946;27.634;2024-02-26T04:08:21;56.413170;48.475082;74.378540;;
79288;Laerm;68737;53.946;27.634;2024-02-26T04:10:51;57.759003;48.257904;80.231544;;
79288;Laerm;68737;53.946;27.634;2024-02-26T04:13:21;56.397789;48.916451;72.225548;;
79288;Laerm;68737;53.946;27.634;2024-02-26T04:15:51;57.145660;50.184845;66.495850;;
79288;Laerm;68737;53.946;27.634;2024-02-26T04:18:21;58.422318;49.183502;82.697021;;
79288;Laerm;68737;53.946;27.634;2024-02-26T04:20:51;57.584984;50.259918;77.916786;;
79288;Laerm;68737;53.946;27.634;2024-02-26T04:23:21;57.598427;50.891762;71.074799;;
79288;Laerm;68737;53.946;27.634;2024-02-26T04:25:51;56.883667;48.894135;73.643311;;
79288;Laerm;68737;53.946;27.634;2024-02-26T04:28:21;56.777725;49.554024;71.504280;;
79288;Laerm;68737;53.946;27.634;2024-02-26T04:30:51;58.232735;50.970818;76.409317;;
79288;Laerm;68737;53.946;27.634;2024-02-26T04:33:21;57.860954;50.380737;65.592346;;
79288;Laerm;68737;53.946;27.634;2024-02-26T04:35:51;57.421974;49.958527;78.779678;;
79288;Laerm;68737;53.946;27.634;2024-02-26T04:38:21;57.171745;51.088615;79.210350;;
79288;Laerm;68737;53.946;27.634;2024-02-26T04:40:52;56.947868;51.137772;70.920830;;
79288;Laerm;68737;53.946;27.634;2024-02-26T04:43:21;58.302780;51.210091;71.880875;;
79288;Laerm;68737;53.946;27.634;2024-02-26T04:45:51;56.841667;50.636337;79.267815;;
79288;Laerm;68737;53.946;27.634;2024-02-26T04:48:23;58.303261;53.174889;74.495911;;
79288;Laerm;68737;53.946;27.634;2024-02-26T04:50:51;60.240898;52.139687;71.333405;;
79288;Laerm;68737;53.946;27.634;2024-02-26T04:53:21;58.089020;52.748314;77.397766;;
79288;Laerm;68737;53.946;27.634;2024-02-26T04:55:51;58.807755;51.502693;72.900520;;
79288;Laerm;68737;53.946;27.634;2024-02-26T04:58:21;58.238220;52.470497;81.127716;;
79288;Laerm;68737;53.946;27.634;2024-02-26T05:00:51;58.363258;52.671242;69.623940;;
79288;Laerm;68737;53.946;27.634;2024-02-26T05:03:21;58.000771;51.779633;77.853249;;
79288;Laerm;68737;53.946;27.634;2024-02-26T05:05:51;59.541634;52.549591;73.521622;;
79288;Laerm;68737;53.946;27.634;2024-02-26T05:08:21;58.614532;52.457863;69.302307;;
79288;Laerm;68737;53.946;27.634;2024-02-26T05:10:51;59.758053;53.128769;77.967789;;
79288;Laerm;68737;53.946;27.634;2024-02-26T05:13:21;58.841316;53.107376;71.064301;;
79288;Laerm;68737;53.946;27.634;2024-02-26T05:15:51;59.992825;53.630035;80.644501;;
79288;Laerm;68737;53.946;27.634;2024-02-26T05:20:51;59.054352;52.425613;73.589127;;
79288;Laerm;68737;53.946;27.634;2024-02-26T05:23:21;59.603325;53.571671;72.617401;;
79288;Laerm;68737;53.946;27.634;2024-02-26T05:25:51;60.262695;55.467239;72.878906;;
79288;Laerm;68737;53.946;27.634;2024-02-26T05:28:21;59.888332;53.558640;66.183929;;
79288;Laerm;68737;53.946;27.634;2024-02-26T05:30:51;60.149563;53.606323;74.129845;;
79288;Laerm;68737;53.946;27.634;2024-02-26T05:33:21;59.187740;53.400093;73.721527;;
79288;Laerm;68737;53.946;27.634;2024-02-26T05:35:51;64.064774;54.818214;86.905487;;
79288;Laerm;68737;53.946;27.634;2024-02-26T05:38:21;59.181412;53.596756;77.818626;;
79288;Laerm;68737;53.946;27.634;2024-02-26T05:40:51;59.351715;52.373886;71.110489;;
79288;Laerm;68737;53.946;27.634;2024-02-26T05:43:21;59.000450;52.978798;67.494026;;
79288;Laerm;68737;53.946;27.634;2024-02-26T05:45:51;59.634586;51.774712;74.245796;;
79288;Laerm;68737;53.946;27.634;2024-02-26T05:48:21;60.161705;54.114334;72.727615;;
79288;Laerm;68737;53.946;27.634;2024-02-26T05:50:51;60.754986;50.668190;74.575569;;
79288;Laerm;68737;53.946;27.634;2024-02-26T05:53:21;59.494129;53.007027;72.753189;;
79288;Laerm;68737;53.946;27.634;2024-02-26T05:55:51;59.373169;53.108482;72.039169;;
79288;Laerm;68737;53.946;27.634;2024-02-26T05:58:21;59.562878;52.740990;69.164223;;
79288;Laerm;68737;53.946;27.634;2024-02-26T06:00:51;59.177605;52.208786;70.286827;;
79288;Laerm;68737;53.946;27.634;2024-02-26T06:03:21;60.569366;53.270477;78.048294;;
79288;Laerm;68737;53.946;27.634;2024-02-26T06:05:51;60.677063;54.785576;73.366638;;
79288;Laerm;68737;53.946;27.634;2024-02-26T06:08:21;60.254951;51.566277;77.240158;;
79288;Laerm;68737;53.946;27.634;2024-02-26T06:10:51;58.751396;51.699539;65.176865;;
79288;Laerm;68737;53.946;27.634;2024-02-26T06:13:21;59.681446;52.992897;79.990463;;
79288;Laerm;68737;53.946;27.634;2024-02-26T06:15:51;59.999290;53.859596;69.468353;;
79288;Laerm;68737;53.946;27.634;2024-02-26T06:18:21;59.687920;52.158890;70.350769;;
79288;Laerm;68737;53.946;27.634;2024-02-26T06:20:51;59.025093;52.520203;72.579330;;
79288;Laerm;68737;53.946;27.634;2024-02-26T06:23:21;59.153973;52.174347;72.860428;;
79288;Laerm;68737;53.946;27.634;2024-02-26T06:25:51;60.137974;52.044662;81.041702;;
79288;Laerm;68737;53.946;27.634;2024-02-26T06:28:21;60.205826;54.882553;66.457649;;
79288;Laerm;68737;53.946;27.634;2024-02-26T06:30:51;59.409424;51.795837;80.133125;;
79288;Laerm;68737;53.946;27.634;2024-02-26T06:33:21;59.444798;52.664276;78.467621;;
79288;Laerm;68737;53.946;27.634;2024-02-26T06:35:51;61.823765;54.895744;71.611816;;
79288;Laerm;68737;53.946;27.634;2024-02-26T06:38:21;56.682129;51.510750;63.845535;;
79288;Laerm;68737;53.946;27.634;2024-02-26T06:40:51;62.787991;51.680710;78.126991;;
79288;Laerm;68737;53.946;27.634;2024-02-26T06:43:21;59.338451;52.311005;72.748535;;
79288;Laerm;68737;53.946;27.634;2024-02-26T06:45:51;57.993202;51.727051;72.560776;;
79288;Laerm;68737;53.946;27.634;2024-02-26T06:48:22;59.818760;52.583038;72.132294;;
79288;Laerm;68737;53.946;27.634;2024-02-26T06:50:51;58.718437;51.361160;77.668182;;
79288;Laerm;68737;53.946;27.634;2024-02-26T06:53:21;57.044022;51.195763;67.338470;;
79288;Laerm;68737;53.946;27.634;2024-02-26T06:55:51;58.620468;51.866333;70.516754;;
79288;Laerm;68737;53.946;27.634;2024-02-26T06:58:21;60.805691;52.827003;76.552277;;
79288;Laerm;68737;53.946;27.634;2024-02-26T07:00:51;61.372093;52.702881;79.089859;;
79288;Laerm;68737;53.946;27.634;2024-02-26T07:03:21;58.792175;52.052597;68.108513;;
79288;Laerm;68737;53.946;27.634;2024-02-26T07:05:51;59.668987;51.230652;80.285179;;
79288;Laerm;68737;53.946;27.634;2024-02-26T07:08:21;58.580078;52.791550;73.094170;;
79288;Laerm;68737;53.946;27.634;2024-02-26T07:10:51;59.774460;53.064163;73.695465;;
79288;Laerm;68737;53.946;27.634;2024-02-26T07:13:21;62.298004;52.278862;74.111679;;
79288;Laerm;68737;53.946;27.634;2024-02-26T07:15:51;58.962425;51.081139;65.177078;;
79288;Laerm;68737;53.946;27.634;2024-02-26T07:18:21;58.720741;50.638138;71.456871;;
79288;Laerm;68737;53.946;27.634;2024-02-26T07:20:51;61.686920;52.313705;82.151382;;
79288;Laerm;68737;53.946;27.634;2024-02-26T07:23:21;61.139442;51.877510;72.145279;;
79288;Laerm;68737;53.946;27.634;2024-02-26T07:25:51;58.965927;51.932068;79.093445;;
79288;Laerm;68737;53.946;27.634;2024-02-26T07:28:21;57.729385;50.410980;81.000847;;
79288;Laerm;68737;53.946;27.634;2024-02-26T07:30:51;59.630997;52.294006;72.232536;;
79288;Laerm;68737;53.946;27.634;2024-02-26T07:33:21;57.841965;49.636017;80.939346;;
79288;Laerm;68737;53.946;27.634;2024-02-26T07:35:51;60.419941;50.572510;76.734062;;
79288;Laerm;68737;53.946;27.634;2024-02-26T07:38:21;60.651424;52.177391;79.933098;;
79288;Laerm;68737;53.946;27.634;2024-02-26T07:40:51;59.874760;51.111008;73.967255;;
79288;Laerm;68737;53.946;27.634;2024-02-26T07:43:21;58.084656;51.069511;76.034775;;
79288;Laerm;68737;53.946;27.634;2024-02-26T07:45:51;60.792645;52.058472;79.763504;;
79288;Laerm;68737;53.946;27.634;2024-02-26T07:48:21;61.179306;50.787277;81.061066;;
79288;Laerm;68737;53.946;27.634;2024-02-26T07:50:51;60.957417;52.183960;80.259384;;
79288;Laerm;68737;53.946;27.634;2024-02-26T07:53:21;61.153610;53.098633;70.366486;;
79288;Laerm;68737;53.946;27.634;2024-02-26T07:55:51;60.725857;52.639740;75.951141;;
79288;Laerm;68737;53.946;27.634;2024-02-26T07:58:21;60.448696;51.157028;77.986679;;
79288;Laerm;68737;53.946;27.634;2024-02-26T08:00:51;60.964916;51.193802;77.916138;;
79288;Laerm;68737;53.946;27.634;2024-02-26T08:03:21;60.109238;52.519287;76.372879;;
79288;Laerm;68737;53.946;27.634;2024-02-26T08:05:51;58.901100;51.602142;72.277435;;
79288;Laerm;68737;53.946;27.634;2024-02-26T08:08:21;64.963043;51.582970;78.589615;;
79288;Laerm;68737;53.946;27.634;2024-02-26T08:10:51;64.160027;59.849667;75.015999;;
79288;Laerm;68737;53.946;27.634;2024-02-26T08:13:21;63.646927;51.171608;74.136299;;
79288;Laerm;68737;53.946;27.634;2024-02-26T08:15:51;62.365231;53.028008;78.458076;;
79288;Laerm;68737;53.946;27.634;2024-02-26T08:18:21;62.158554;54.840012;81.318817;;
79288;Laerm;68737;53.946;27.634;2024-02-26T08:20:51;63.217014;60.294769;72.497055;;
79288;Laerm;68737;53.946;27.634;2024-02-26T08:23:21;63.310070;59.873024;71.431923;;
79288;Laerm;68737;53.946;27.634;2024-02-26T08:25:51;63.823292;60.505913;75.210640;;
79288;Laerm;68737;53.946;27.634;2024-02-26T08:28:21;63.903416;59.916428;73.601402;;
79288;Laerm;68737;53.946;27.634;2024-02-26T08:30:51;64.023514;60.564735;71.342117;;
79288;Laerm;68737;53.946;27.634;2024-02-26T08:33:21;63.680466;58.217842;67.381226;;
79288;Laerm;68737;53.946;27.634;2024-02-26T08:35:51;59.706177;52.394905;68.482895;;
79288;Laerm;68737;53.946;27.634;2024-02-26T08:38:21;57.508919;49.694672;71.788628;;
79288;Laerm;68737;53.946;27.634;2024-02-26T08:40:51;60.488434;50.461159;74.018311;;
79288;Laerm;68737;53.946;27.634;2024-02-26T08:43:21;59.403522;51.650826;68.682205;;
79288;Laerm;68737;53.946;27.634;2024-02-26T08:45:51;56.683578;49.032898;79.567055;;
79288;Laerm;68737;53.946;27.634;2024-02-26T08:48:21;58.873520;51.123642;68.605179;;
79288;Laerm;68737;53.946;27.634;2024-02-26T08:50:51;59.186478;51.381256;66.738075;;
79288;Laerm;68737;53.946;27.634;2024-02-26T08:53:21;59.528164;50.887222;70.718849;;
79288;Laerm;68737;53.946;27.634;2024-02-26T08:55:51;58.043129;50.729500;79.226631;;
79288;Laerm;68737;53.946;27.634;2024-02-26T08:58:21;59.714607;52.113243;68.582565;;
79288;Laerm;68737;53.946;27.634;2024-02-26T09:00:51;62.121944;51.285072;75.685150;;
79288;Laerm;68737;53.946;27.634;2024-02-26T09:03:21;57.836304;50.775261;66.990982;;
79288;Laerm;68737;53.946;27.634;2024-02-26T09:05:51;60.284321;51.798531;72.550743;;
79288;Laerm;68737;53.946;27.634;2024-02-26T09:08:21;59.780045;52.944275;67.073334;;
79288;Laerm;68737;53.946;27.634;2024-02-26T09:10:51;59.608372;51.002594;74.521484;;
79288;Laerm;68737;53.946;27.634;2024-02-26T09:13:21;59.492958;50.976456;67.890503;;
79288;Laerm;68737;53.946;27.634;2024-02-26T09:15:51;62.831661;52.887192;75.975555;;
79288;Laerm;68737;53.946;27.634;2024-02-26T09:18:21;59.845055;52.078979;80.196983;;
79288;Laerm;68737;53.946;27.634;2024-02-26T09:20:51;58.270378;50.072502;78.577652;;
79288;Laerm;68737;53.946;27.634;2024-02-26T09:23:21;57.771957;49.905792;70.165367;;
79288;Laerm;68737;53.946;27.634;2024-02-26T09:25:51;57.929413;51.324310;66.416252;;
79288;Laerm;68737;53.946;27.634;2024-02-26T09:28:21;58.963638;50.694000;71.179756;;
79288;Laerm;68737;53.946;27.634;2024-02-26T09:30:51;59.371693;50.575432;73.099655;;
79288;Laerm;68737;53.946;27.634;2024-02-26T09:33:21;60.414074;53.468880;69.124268;;
79288;Laerm;68737;53.946;27.634;2024-02-26T09:35:51;60.604244;51.937943;72.172005;;
79288;Laerm;68737;53.946;27.634;2024-02-26T09:38:21;58.901176;49.350403;71.813171;;
79288;Laerm;68737;53.946;27.634;2024-02-26T09:40:51;60.611881;49.605309;70.528877;;
79288;Laerm;68737;53.946;27.634;2024-02-26T09:43:21;58.398750;49.810883;73.619659;;
79288;Laerm;68737;53.946;27.634;2024-02-26T09:45:52;58.242653;51.268120;66.649773;;
79288;Laerm;68737;53.946;27.634;2024-02-26T09:48:21;59.502342;51.342247;68.917572;;
79288;Laerm;68737;53.946;27.634;2024-02-26T09:50:51;58.058022;50.529434;67.540901;;
79288;Laerm;68737;53.946;27.634;2024-02-26T09:53:21;58.162102;50.202271;64.248459;;
79288;Laerm;68737;53.946;27.634;2024-02-26T09:55:51;59.986519;51.735687;68.572456;;
79288;Laerm;68737;53.946;27.634;2024-02-26T09:58:21;57.728798;49.861099;66.400215;;
79288;Laerm;68737;53.946;27.634;2024-02-26T10:00:51;57.979668;49.609772;72.887970;;
79288;Laerm;68737;53.946;27.634;2024-02-26T10:03:21;58.402428;49.688896;67.985458;;
79288;Laerm;68737;53.946;27.634;2024-02-26T10:05:51;58.047348;49.436096;72.725311;;
79288;Laerm;68737;53.946;27.634;2024-02-26T10:08:21;60.338169;49.984261;76.985405;;
79288;Laerm;68737;53.946;27.634;2024-02-26T10:10:51;59.480724;52.063324;70.037514;;
79288;Laerm;68737;53.946;27.634;2024-02-26T10:13:21;58.315613;51.679054;68.770645;;
79288;Laerm;68737;53.946;27.634;2024-02-26T10:15:51;58.732765;49.478004;67.302597;;
79288;Laerm;68737;53.946;27.634;2024-02-26T10:18:22;58.644012;52.416229;67.008354;;
79288;Laerm;68737;53.946;27.634;2024-02-26T10:23:23;58.302559;50.168495;64.321259;;
79288;Laerm;68737;53.946;27.634;2024-02-26T10:28:21;59.624531;51.181831;69.032333;;
79288;Laerm;68737;53.946;27.634;2024-02-26T10:30:51;58.245811;51.088615;65.632462;;
79288;Laerm;68737;53.946;27.634;2024-02-26T10:33:21;59.468807;51.102425;70.082680;;
79288;Laerm;68737;53.946;27.634;2024-02-26T10:35:51;59.055302;50.477615;75.391571;;
79288;Laerm;68737;53.946;27.634;2024-02-26T10:38:21;58.608765;50.272499;75.788559;;
79288;Laerm;68737;53.946;27.634;2024-02-26T10:40:51;60.496262;50.921204;71.381813;;
79288;Laerm;68737;53.946;27.634;2024-02-26T10:43:21;60.709019;52.115479;77.197525;;
79288;Laerm;68737;53.946;27.634;2024-02-26T10:45:51;59.775772;49.587433;71.171928;;
79288;Laerm;68737;53.946;27.634;2024-02-26T10:48:21;57.477013;49.470688;64.656189;;
79288;Laerm;68737;53.946;27.634;2024-02-26T10:50:51;58.082085;50.074257;71.669418;;
79288;Laerm;68737;53.946;27.634;2024-02-26T10:53:21;59.040146;51.051338;71.104263;;
79288;Laerm;68737;53.946;27.634;2024-02-26T10:58:21;59.100826;51.459496;74.767921;;
79288;Laerm;68737;53.946;27.634;2024-02-26T11:00:51;59.465763;50.486664;69.069839;;
79288;Laerm;68737;53.946;27.634;2024-02-26T11:03:21;57.488007;50.159538;66.880936;;
79288;Laerm;68737;53.946;27.634;2024-02-26T11:05:51;58.183022;48.695869;66.397339;;
79288;Laerm;68737;53.946;27.634;2024-02-26T11:08:21;56.848930;49.584389;64.910309;;
79288;Laerm;68737;53.946;27.634;2024-02-26T11:10:52;57.480186;49.481476;64.326080;;
79288;Laerm;68737;53.946;27.634;2024-02-26T11:13:21;58.056335;50.010506;65.657555;;
79288;Laerm;68737;53.946;27.634;2024-02-26T11:15:50;58.377228;49.792114;67.041794;;
79288;Laerm;68737;53.946;27.634;2024-02-26T11:18:21;57.712746;50.914566;63.834763;;
79288;Laerm;68737;53.946;27.634;2024-02-26T11:20:50;64.157181;56.991180;70.821793;;
79288;Laerm;68737;53.946;27.634;2024-02-26T11:23:20;64.025940;56.835266;74.269814;;
79288;Laerm;68737;53.946;27.634;2024-02-26T11:25:51;60.359779;54.072571;72.675308;;
79288;Laerm;68737;53.946;27.634;2024-02-26T11:28:20;59.869423;50.230125;75.399765;;
79288;Laerm;68737;53.946;27.634;2024-02-26T11:30:51;63.085075;52.304016;76.779274;;
79288;Laerm;68737;53.946;27.634;2024-02-26T11:33:20;59.319145;49.657837;74.756096;;
79288;Laerm;68737;53.946;27.634;2024-02-26T11:35:50;59.447319;53.008049;74.088776;;
79288;Laerm;68737;53.946;27.634;2024-02-26T11:38:21;59.220837;50.611931;71.450470;;
79288;Laerm;68737;53.946;27.634;2024-02-26T11:40:51;59.809528;52.432777;68.024803;;
79288;Laerm;68737;53.946;27.634;2024-02-26T11:45:51;61.983650;50.229218;73.552444;;
79288;Laerm;68737;53.946;27.634;2024-02-26T11:48:21;61.455017;49.542664;71.104866;;
79288;Laerm;68737;53.946;27.634;2024-02-26T11:58:20;56.175774;50.683136;64.119667;;
79288;Laerm;68737;53.946;27.634;2024-02-26T12:00:50;56.057442;49.072617;63.669159;;
79288;Laerm;68737;53.946;27.634;2024-02-26T12:03:20;60.265091;50.172806;72.302902;;
79288;Laerm;68737;53.946;27.634;2024-02-26T12:05:51;57.962059;49.379181;64.423630;;
79288;Laerm;68737;53.946;27.634;2024-02-26T12:08:20;58.739006;51.191620;65.707581;;